Myrtle Beach International Airport
KMYR : now visible

Airfield :











YOU CAN JOIN US ON...

 
LOGIN :

Register | Disclaimer

   EN    FR    IT 

 









Legend :    VFR   Marginal VFR   IFR   Intensive IFR   Very Intensive IFR
Visi :
Ceiling :
>= 8 km
>= 3000ft
5 to 8 km
1000 to 3000 ft
1500m to 5 km
500 to 1000 ft
800 to 1500m
200 to 500 ft
< 800m
< 200 ft
Symbols :   Thunderstorms  Fog  Heavy snow  Heavy precipitations  Wind > 20 kt






- Airport Elevation : 25 ft
- IATA code : MYR


KMYR - Myrtle Beach International

CURRENT METAR :
  • 261521Z 32010KT 10SM FEW006 OVC014 18/16 A3014 RMK AO2

EXPIRED METARs :
  • 261456Z 33011KT 10SM OVC006 17/15 A3014 RMK AO2 SLP205 T01670150 51015
  • 261356Z 33010KT 10SM OVC006 16/14 A3013 RMK AO2 SLP203 T01560144
  • 261256Z 35012KT 10SM OVC006 15/14 A3010 RMK AO2 SLP194 T01500139

TAF KMYR
Valid from the 26 at 12:00 until the 27 at 12:00 UTC


261136Z 2612/2712 36008KT 6SM BR BKN006
TEMPO 2612/2614 BKN016
FM261600 36007KT P6SM BKN025
FM262000 03006KT P6SM SCT045
FM271000 VRB03KT P6SM BKN010
KZJX FIR / North America



MET'MAP, your aeronautical weather chart ! - Copyright ORBIFLY December 2007 - Disclaimer

ORBIFLY MET'MAP TEAM :

Programming & Development : Alexandra Zaïnal
Concept & original design : Baudouin d'Aumeries
Assistance for programming : Marc-Olivier Méhu
Technical & hardware support : Manuel Goepfert

Contact : metmap@orbifly.com




SOURCES & CREDITS :

   NOAA       Earth
Advisory